Time;durP1;ratioP1;P1;durP2;ratioP2;P2;SDS_P1;SDS_P2;PMS_P1;PMS_P2;Temp;Humidity;BMP_temperature;BMP_pressure;BME280_temperature;BME280_humidity;BME280_pressure;Samples;Min_cycle;Max_cycle;Signal;HPM_P1;HPM_P2
2023/09/18 00:00:50;;;;;;;11.73;8.57;;;19.80;26.00;;;;;;4985101;28;20496;-66
2023/09/18 00:03:18;;;;;;;14.23;8.80;;;19.80;26.60;;;;;;4988526;28;21047;-65
2023/09/18 00:05:45;;;;;;;13.07;9.37;;;19.80;26.20;;;;;;4987674;28;20560;-65
2023/09/18 00:08:12;;;;;;;13.73;10.50;;;19.80;26.00;;;;;;4988783;28;20475;-65
2023/09/18 00:10:39;;;;;;;14.30;10.97;;;19.80;26.60;;;;;;4982083;28;21568;-65
2023/09/18 00:13:06;;;;;;;13.47;10.43;;;19.80;26.90;;;;;;4989058;28;20592;-65
2023/09/18 00:15:34;;;;;;;14.00;9.23;;;19.70;26.60;;;;;;4988749;28;20472;-67
2023/09/18 00:18:01;;;;;;;12.70;9.83;;;19.80;26.50;;;;;;4989054;28;20968;-65
2023/09/18 00:20:28;;;;;;;11.80;9.70;;;19.70;26.40;;;;;;4987628;28;20479;-64
2023/09/18 00:22:55;;;;;;;14.80;10.47;;;19.70;26.50;;;;;;4985949;28;20489;-65
2023/09/18 00:25:21;;;;;;;12.83;9.57;;;19.70;26.80;;;;;;4989624;28;20821;-66
2023/09/18 00:27:48;;;;;;;12.80;9.40;;;19.70;26.70;;;;;;4985253;28;20464;-65
2023/09/18 00:30:15;;;;;;;11.30;9.47;;;19.60;26.50;;;;;;4990592;28;20473;-65
2023/09/18 00:32:43;;;;;;;14.57;9.70;;;19.60;26.80;;;;;;4989343;28;20469;-65
2023/09/18 00:35:10;;;;;;;11.37;8.40;;;19.60;26.80;;;;;;4988853;28;20488;-66
2023/09/18 00:37:39;;;;;;;10.70;8.90;;;19.50;26.40;;;;;;4986972;28;20457;-65
2023/09/18 00:40:07;;;;;;;14.10;9.37;;;19.50;26.30;;;;;;4990328;28;20579;-65
2023/09/18 00:42:34;;;;;;;12.10;8.70;;;19.50;26.30;;;;;;4988121;28;20977;-65
2023/09/18 00:45:00;;;;;;;11.17;8.70;;;19.50;26.40;;;;;;4986978;28;20500;-65
2023/09/18 00:47:28;;;;;;;11.07;8.60;;;19.40;26.70;;;;;;4986642;28;21169;-65
2023/09/18 00:49:56;;;;;;;12.00;8.73;;;19.40;26.60;;;;;;4988718;28;20466;-65
2023/09/18 00:52:24;;;;;;;11.07;9.03;;;19.40;26.80;;;;;;4987825;28;20469;-65
2023/09/18 00:54:52;;;;;;;17.03;9.87;;;19.40;26.90;;;;;;4988510;28;20485;-66
2023/09/18 00:57:19;;;;;;;12.33;9.80;;;19.40;27.20;;;;;;4990884;28;20563;-65
2023/09/18 00:59:46;;;;;;;14.70;9.70;;;19.40;27.20;;;;;;4990819;28;20810;-65
2023/09/18 01:02:13;;;;;;;14.40;9.47;;;19.30;27.30;;;;;;4988220;28;20480;-65
2023/09/18 01:04:43;;;;;;;11.60;8.60;;;19.30;27.40;;;;;;4987299;28;21135;-65
2023/09/18 01:07:12;;;;;;;14.83;9.17;;;19.30;27.30;;;;;;4984222;28;20472;-66
2023/09/18 01:09:39;;;;;;;10.77;9.07;;;19.30;27.40;;;;;;4984043;28;20472;-65
2023/09/18 01:12:12;;;;;;;12.87;9.23;;;19.20;27.40;;;;;;4988117;28;20476;-65
2023/09/18 01:14:45;;;;;;;17.33;9.90;;;19.20;27.80;;;;;;4987553;28;21126;-65
2023/09/18 01:17:13;;;;;;;13.30;9.60;;;19.20;28.20;;;;;;4987656;28;20465;-65
2023/09/18 01:19:44;;;;;;;11.30;9.50;;;19.20;28.40;;;;;;4987493;28;20472;-65
2023/09/18 01:22:14;;;;;;;11.70;9.27;;;19.20;28.70;;;;;;4986215;28;20560;-65
2023/09/18 01:24:42;;;;;;;15.90;10.07;;;19.20;29.00;;;;;;4986964;28;20483;-65
2023/09/18 01:27:12;;;;;;;18.03;9.70;;;19.20;29.10;;;;;;4989621;28;20471;-65
2023/09/18 01:29:39;;;;;;;12.67;10.40;;;19.20;29.20;;;;;;4987367;28;21035;-65
2023/09/18 01:32:06;;;;;;;15.03;11.27;;;19.20;29.30;;;;;;4985392;28;20489;-65
2023/09/18 01:34:36;;;;;;;11.90;10.00;;;19.20;29.50;;;;;;4989382;28;20993;-65
2023/09/18 01:37:06;;;;;;;12.60;9.10;;;19.20;29.00;;;;;;4987768;28;20523;-65
2023/09/18 01:39:35;;;;;;;18.30;9.10;;;19.30;28.70;;;;;;4989465;28;20469;-65
2023/09/18 01:42:06;;;;;;;13.40;9.50;;;19.30;28.30;;;;;;4985857;28;20457;-65
2023/09/18 01:44:33;;;;;;;14.53;10.70;;;19.30;28.30;;;;;;4988568;28;20488;-65
2023/09/18 01:47:03;;;;;;;10.50;9.40;;;19.40;28.40;;;;;;4986108;28;20491;-66
2023/09/18 01:49:33;;;;;;;12.70;10.20;;;19.30;28.30;;;;;;4986434;28;20468;-65
2023/09/18 01:52:00;;;;;;;13.17;10.10;;;19.40;28.60;;;;;;4980885;28;20497;-65
2023/09/18 01:54:27;;;;;;;12.30;9.50;;;19.30;28.60;;;;;;4986217;28;20499;-65
2023/09/18 01:56:54;;;;;;;12.70;10.17;;;19.30;28.50;;;;;;4987619;28;20476;-65
2023/09/18 01:59:24;;;;;;;15.33;11.03;;;19.30;28.80;;;;;;4985750;28;20461;-65
2023/09/18 02:01:51;;;;;;;14.83;11.00;;;19.30;28.80;;;;;;4986669;28;20481;-65
2023/09/18 02:04:18;;;;;;;13.70;9.63;;;19.30;29.00;;;;;;4984225;28;20488;-65
2023/09/18 02:06:45;;;;;;;14.53;11.30;;;19.30;29.10;;;;;;4987143;28;20556;-65
2023/09/18 02:09:12;;;;;;;18.40;11.10;;;19.30;29.40;;;;;;4985520;28;20491;-65
2023/09/18 02:11:40;;;;;;;17.63;9.73;;;19.30;29.50;;;;;;4985548;28;20474;-65
2023/09/18 02:14:07;;;;;;;13.50;11.10;;;19.30;29.70;;;;;;4980058;28;20492;-65
2023/09/18 02:16:37;;;;;;;13.40;10.87;;;19.30;29.70;;;;;;4981924;28;20465;-65
2023/09/18 02:19:04;;;;;;;13.30;10.87;;;19.20;29.60;;;;;;4988199;28;20957;-65
2023/09/18 02:21:31;;;;;;;11.17;9.80;;;19.20;29.60;;;;;;4986626;28;20464;-65
2023/09/18 02:23:58;;;;;;;14.90;11.47;;;19.10;29.90;;;;;;4989536;28;20483;-65
2023/09/18 02:26:25;;;;;;;13.43;11.37;;;19.00;30.20;;;;;;4986682;28;20847;-65
2023/09/18 02:28:53;;;;;;;14.37;11.90;;;18.90;30.60;;;;;;4986222;28;20479;-65
2023/09/18 02:31:20;;;;;;;17.00;11.67;;;18.80;30.70;;;;;;4985408;28;20536;-65
2023/09/18 02:33:48;;;;;;;13.90;11.20;;;18.70;31.30;;;;;;4989263;28;20485;-65
2023/09/18 02:36:16;;;;;;;16.20;11.07;;;18.70;31.60;;;;;;4986570;28;21019;-65
2023/09/18 02:38:43;;;;;;;10.83;9.20;;;18.70;31.50;;;;;;4989111;28;20461;-65
2023/09/18 02:41:10;;;;;;;13.30;10.33;;;18.60;31.60;;;;;;4986907;28;20480;-65
2023/09/18 02:43:37;;;;;;;12.10;10.10;;;18.60;31.50;;;;;;4987617;28;20498;-65
2023/09/18 02:46:04;;;;;;;12.80;9.20;;;18.60;31.50;;;;;;4988507;28;20552;-65
2023/09/18 02:48:31;;;;;;;14.00;10.47;;;18.50;31.50;;;;;;4986872;28;20539;-65
2023/09/18 02:50:59;;;;;;;19.30;12.10;;;18.50;31.70;;;;;;4984870;28;21096;-65
2023/09/18 02:53:26;;;;;;;15.60;11.70;;;18.50;31.90;;;;;;4984561;28;20488;-65
2023/09/18 02:55:55;;;;;;;12.40;10.67;;;18.50;32.40;;;;;;4988519;28;20464;-65
2023/09/18 02:58:22;;;;;;;12.60;10.23;;;18.40;32.20;;;;;;4986903;28;20469;-65
2023/09/18 03:00:50;;;;;;;11.80;9.87;;;18.40;32.20;;;;;;4985135;28;20503;-65
2023/09/18 03:03:18;;;;;;;14.37;9.80;;;18.40;32.40;;;;;;4990039;28;20495;-65
2023/09/18 03:05:45;;;;;;;12.60;9.57;;;18.30;32.50;;;;;;4990096;28;20491;-65
2023/09/18 03:08:15;;;;;;;14.20;9.83;;;18.30;32.80;;;;;;4987092;28;20850;-65
2023/09/18 03:10:43;;;;;;;12.10;9.40;;;18.20;32.50;;;;;;4988769;28;20465;-65
2023/09/18 03:13:10;;;;;;;14.33;10.93;;;18.20;32.50;;;;;;4990946;28;20492;-65
2023/09/18 03:15:37;;;;;;;13.10;10.23;;;18.20;32.30;;;;;;4988913;28;20457;-65
2023/09/18 03:18:06;;;;;;;16.80;10.20;;;18.20;32.20;;;;;;4988957;28;20503;-65
2023/09/18 03:20:33;;;;;;;15.63;10.27;;;18.20;32.10;;;;;;4989439;28;20524;-65
2023/09/18 03:23:02;;;;;;;14.80;11.50;;;18.20;32.10;;;;;;4989730;28;20485;-65
2023/09/18 03:25:30;;;;;;;15.30;11.83;;;18.20;32.00;;;;;;4988181;28;20484;-65
2023/09/18 03:27:58;;;;;;;13.77;10.97;;;18.10;31.70;;;;;;4992526;28;20460;-65
2023/09/18 03:30:25;;;;;;;16.03;11.03;;;18.20;31.30;;;;;;4989667;28;20472;-65
2023/09/18 03:32:53;;;;;;;15.47;12.00;;;18.20;30.80;;;;;;4992616;28;20469;-65
2023/09/18 03:35:21;;;;;;;18.43;12.73;;;18.20;30.60;;;;;;4988178;28;20488;-65
2023/09/18 03:37:48;;;;;;;13.70;12.00;;;18.20;31.10;;;;;;4995952;28;20468;-65
2023/09/18 03:40:15;;;;;;;14.13;11.53;;;18.30;31.00;;;;;;4991928;28;20473;-65
2023/09/18 03:42:43;;;;;;;14.03;12.53;;;18.20;30.90;;;;;;4990182;28;20948;-66
2023/09/18 03:45:10;;;;;;;15.37;12.23;;;18.20;30.90;;;;;;4987052;28;20572;-65
2023/09/18 03:47:39;;;;;;;15.67;12.80;;;18.10;31.20;;;;;;4994716;28;20472;-65
2023/09/18 03:50:06;;;;;;;15.77;13.20;;;18.00;31.30;;;;;;4990339;28;20472;-64
2023/09/18 03:52:33;;;;;;;13.50;11.57;;;18.00;31.40;;;;;;4989690;28;20461;-64
2023/09/18 03:55:00;;;;;;;18.80;13.37;;;18.00;31.30;;;;;;4990499;28;20488;-65
2023/09/18 03:57:27;;;;;;;13.90;12.20;;;18.00;32.00;;;;;;4990648;28;20469;-65
2023/09/18 03:59:55;;;;;;;17.40;13.57;;;17.90;31.70;;;;;;4989431;28;20460;-65
2023/09/18 04:02:24;;;;;;;16.50;12.50;;;17.90;32.70;;;;;;4983007;28;20469;-63
2023/09/18 04:04:51;;;;;;;16.50;11.90;;;17.90;32.00;;;;;;4988095;28;20495;-65
2023/09/18 04:07:19;;;;;;;15.77;12.80;;;17.90;31.90;;;;;;4987020;28;20461;-66
2023/09/18 04:09:46;;;;;;;15.67;11.80;;;17.90;31.50;;;;;;4988223;28;20473;-65
2023/09/18 04:12:12;;;;;;;17.63;11.77;;;17.90;31.50;;;;;;4989120;28;20474;-64
2023/09/18 04:14:39;;;;;;;16.03;13.13;;;17.90;31.40;;;;;;4988343;28;20476;-64
2023/09/18 04:17:07;;;;;;;15.73;14.00;;;17.90;31.90;;;;;;4989655;28;20468;-67
2023/09/18 04:19:34;;;;;;;18.60;14.87;;;17.90;32.00;;;;;;4985130;28;20481;-66
2023/09/18 04:22:01;;;;;;;20.30;13.90;;;17.90;32.10;;;;;;4995241;28;20473;-66
2023/09/18 04:24:27;;;;;;;17.37;14.93;;;17.90;32.70;;;;;;4993729;28;20485;-65
2023/09/18 04:29:30;;;;;;;17.20;14.50;;;18.00;32.90;;;;;;5004131;28;20470;-68
2023/09/18 04:31:57;;;;;;;17.57;15.40;;;18.00;32.90;;;;;;5005866;28;21304;-68
2023/09/18 04:34:25;;;;;;;16.80;14.63;;;18.00;33.00;;;;;;5008055;28;20472;-68
2023/09/18 04:36:52;;;;;;;16.40;13.63;;;18.00;32.80;;;;;;5006625;28;20522;-68
2023/09/18 04:39:19;;;;;;;16.27;14.33;;;18.10;32.90;;;;;;5007608;28;20841;-68
2023/09/18 04:41:46;;;;;;;16.63;14.13;;;18.10;33.20;;;;;;5004478;28;21038;-68
2023/09/18 04:44:14;;;;;;;15.80;13.37;;;18.10;33.30;;;;;;5002516;28;21260;-68
2023/09/18 04:46:42;;;;;;;15.80;13.23;;;18.20;33.60;;;;;;5004598;28;20474;-68
2023/09/18 04:49:10;;;;;;;17.53;13.70;;;18.20;33.90;;;;;;5002446;28;20472;-69
2023/09/18 04:51:38;;;;;;;14.70;12.17;;;18.30;33.90;;;;;;5007385;28;20464;-68
2023/09/18 04:54:06;;;;;;;14.00;12.20;;;18.20;33.60;;;;;;5004878;28;20496;-68
2023/09/18 04:56:33;;;;;;;14.60;12.47;;;18.20;33.70;;;;;;5008752;28;20831;-69
2023/09/18 04:58:59;;;;;;;13.60;11.23;;;18.20;33.90;;;;;;5006959;28;20474;-70
2023/09/18 05:01:26;;;;;;;17.93;13.40;;;18.10;33.80;;;;;;5007187;28;20479;-69
2023/09/18 05:03:53;;;;;;;15.90;12.63;;;18.10;33.80;;;;;;5005445;28;21054;-68
2023/09/18 05:06:20;;;;;;;14.70;12.47;;;18.10;34.40;;;;;;5012519;28;20486;-68
2023/09/18 05:08:48;;;;;;;16.67;12.13;;;18.10;33.70;;;;;;5008766;28;20456;-72
2023/09/18 05:11:16;;;;;;;15.13;12.43;;;18.20;33.50;;;;;;5012507;28;20507;-74
2023/09/18 05:13:43;;;;;;;18.90;12.43;;;18.20;33.40;;;;;;5006204;28;21012;-72
2023/09/18 05:16:09;;;;;;;17.13;12.83;;;18.20;33.30;;;;;;5004277;28;20460;-73
2023/09/18 05:18:37;;;;;;;18.70;13.47;;;18.30;33.40;;;;;;5006782;28;20467;-73
2023/09/18 05:21:05;;;;;;;15.97;11.67;;;18.30;33.30;;;;;;5004774;28;20952;-72
2023/09/18 05:23:31;;;;;;;18.13;11.47;;;18.40;33.20;;;;;;5004518;28;20534;-72
2023/09/18 05:26:00;;;;;;;13.57;11.30;;;18.40;32.90;;;;;;5006087;28;20494;-73
2023/09/18 05:28:27;;;;;;;14.17;11.43;;;18.50;33.10;;;;;;5004851;28;20503;-73
2023/09/18 05:30:54;;;;;;;13.13;10.80;;;18.50;33.00;;;;;;5005616;28;21326;-73
2023/09/18 05:33:21;;;;;;;14.63;11.77;;;18.60;32.60;;;;;;5002626;28;20587;-72
2023/09/18 05:35:48;;;;;;;14.77;11.73;;;18.70;32.80;;;;;;5003410;28;20463;-71
2023/09/18 05:38:17;;;;;;;14.77;12.40;;;18.70;32.50;;;;;;5006735;28;20460;-72
2023/09/18 05:40:44;;;;;;;13.30;11.37;;;18.80;32.30;;;;;;5006604;28;21253;-73
2023/09/18 05:43:12;;;;;;;14.87;10.70;;;18.90;31.90;;;;;;5004636;28;21078;-72
2023/09/18 05:45:40;;;;;;;14.10;11.20;;;19.00;31.60;;;;;;5000973;28;20483;-71
2023/09/18 05:48:07;;;;;;;14.50;10.83;;;19.00;31.40;;;;;;5002871;28;20465;-68
2023/09/18 05:50:35;;;;;;;14.00;11.40;;;19.00;31.50;;;;;;5006049;28;20476;-70
2023/09/18 05:53:03;;;;;;;14.27;11.80;;;19.00;31.40;;;;;;5002139;28;20471;-68
2023/09/18 05:55:30;;;;;;;13.20;11.00;;;19.10;31.20;;;;;;5001016;28;20820;-69
2023/09/18 05:57:57;;;;;;;16.87;12.07;;;19.20;31.30;;;;;;5003140;28;20467;-69
2023/09/18 06:00:25;;;;;;;14.30;9.80;;;19.30;30.40;;;;;;5000910;28;20464;-67
2023/09/18 06:02:52;;;;;;;17.60;11.03;;;19.40;30.50;;;;;;5002720;28;20463;-67
2023/09/18 06:05:21;;;;;;;14.40;11.40;;;19.50;30.20;;;;;;5003566;28;20476;-68
2023/09/18 06:07:48;;;;;;;11.90;10.10;;;19.60;30.00;;;;;;5006265;28;20984;-67
2023/09/18 06:10:16;;;;;;;13.67;11.67;;;19.70;29.70;;;;;;5008187;28;20542;-68
2023/09/18 06:12:43;;;;;;;15.20;11.90;;;19.80;29.30;;;;;;5004049;28;20464;-68
2023/09/18 06:15:11;;;;;;;13.83;10.67;;;20.10;29.00;;;;;;5007387;28;20480;-68
2023/09/18 06:17:40;;;;;;;11.43;9.30;;;20.40;28.50;;;;;;4999975;28;20464;-67
2023/09/18 06:20:09;;;;;;;13.77;9.37;;;20.90;26.80;;;;;;5001178;28;21027;-67
2023/09/18 06:22:38;;;;;;;11.00;9.17;;;21.60;24.90;;;;;;5002734;28;20945;-66
2023/09/18 06:25:05;;;;;;;12.37;10.00;;;22.10;23.10;;;;;;4999340;28;20512;-67
2023/09/18 06:27:34;;;;;;;15.03;9.00;;;22.20;21.60;;;;;;5005676;28;20479;-67
2023/09/18 06:30:01;;;;;;;11.30;8.67;;;22.10;21.20;;;;;;5005871;28;20467;-67
2023/09/18 06:32:28;;;;;;;12.87;9.93;;;22.00;21.00;;;;;;5006398;28;20522;-67
2023/09/18 06:34:57;;;;;;;13.67;9.70;;;21.90;21.60;;;;;;5007369;28;21051;-67
2023/09/18 06:37:24;;;;;;;10.27;8.30;;;21.80;21.60;;;;;;5007769;28;20459;-67
2023/09/18 06:39:51;;;;;;;14.03;10.13;;;21.70;21.80;;;;;;5007281;28;20472;-66
2023/09/18 06:42:17;;;;;;;11.63;8.53;;;21.70;22.40;;;;;;5006174;28;20816;-68
2023/09/18 06:44:44;;;;;;;13.77;8.30;;;21.70;22.50;;;;;;5003833;28;20484;-67
2023/09/18 06:47:11;;;;;;;13.07;8.90;;;21.70;22.80;;;;;;5005085;28;20497;-69
2023/09/18 06:49:38;;;;;;;11.37;6.83;;;21.90;22.90;;;;;;5004773;28;20470;-69
2023/09/18 06:52:06;;;;;;;10.07;8.13;;;22.30;21.10;;;;;;5004602;28;20460;-71
2023/09/18 06:54:33;;;;;;;10.93;8.03;;;22.50;20.00;;;;;;5005948;28;20478;-70
2023/09/18 06:56:59;;;;;;;11.93;7.20;;;22.90;19.60;;;;;;5004716;28;20468;-70
2023/09/18 06:59:26;;;;;;;12.23;7.60;;;24.00;18.30;;;;;;5007646;28;20466;-69
2023/09/18 07:01:53;;;;;;;9.27;6.30;;;25.20;15.70;;;;;;5004137;28;21012;-70
2023/09/18 07:04:19;;;;;;;10.17;6.70;;;25.90;12.50;;;;;;5006936;28;20499;-70
2023/09/18 07:06:46;;;;;;;8.70;6.87;;;25.60;12.30;;;;;;5004511;28;20487;-70
2023/09/18 07:09:14;;;;;;;8.83;6.80;;;25.10;12.70;;;;;;5006261;28;20491;-69
2023/09/18 07:11:41;;;;;;;11.90;7.20;;;24.80;12.90;;;;;;5003063;28;20471;-70
2023/09/18 07:14:08;;;;;;;9.30;7.07;;;24.50;13.80;;;;;;4999117;28;20484;-70
2023/09/18 07:16:34;;;;;;;10.13;6.93;;;24.40;14.40;;;;;;4996624;28;20467;-67
2023/09/18 07:19:04;;;;;;;10.90;6.43;;;24.30;15.00;;;;;;5000667;28;20463;-67
2023/09/18 07:21:31;;;;;;;9.33;6.40;;;24.30;15.40;;;;;;5002935;28;20511;-68
2023/09/18 07:23:58;;;;;;;10.20;7.60;;;24.80;15.20;;;;;;4994535;28;20487;-69
2023/09/18 07:26:26;;;;;;;11.43;6.90;;;25.10;14.30;;;;;;5002953;28;20488;-68
2023/09/18 07:28:53;;;;;;;9.93;6.87;;;25.40;13.80;;;;;;5003205;28;20472;-68
2023/09/18 07:31:19;;;;;;;10.13;6.00;;;25.30;13.40;;;;;;5002154;28;20480;-68
2023/09/18 07:33:46;;;;;;;10.83;6.73;;;25.20;13.20;;;;;;5004998;28;20488;-69
2023/09/18 07:36:15;;;;;;;9.37;6.30;;;25.10;13.40;;;;;;5002093;28;20460;-69
2023/09/18 07:38:43;;;;;;;9.83;7.67;;;24.90;13.80;;;;;;5004900;28;20472;-69
2023/09/18 07:41:09;;;;;;;11.93;7.47;;;24.70;14.20;;;;;;5002933;28;20464;-69
2023/09/18 07:43:39;;;;;;;8.60;5.97;;;24.60;14.40;;;;;;5007095;28;20514;-68
2023/09/18 07:46:05;;;;;;;12.93;5.37;;;24.40;14.80;;;;;;5010492;28;21016;-68
2023/09/18 07:48:32;;;;;;;9.30;6.07;;;24.30;15.10;;;;;;5008878;28;20464;-68
2023/09/18 07:50:59;;;;;;;11.40;6.47;;;24.20;15.30;;;;;;5009210;28;20510;-68
2023/09/18 07:53:25;;;;;;;11.20;5.93;;;24.10;15.50;;;;;;5010076;28;20494;-70
2023/09/18 07:55:58;;;;;;;11.20;6.37;;;24.00;15.70;;;;;;5007199;28;20937;-67
2023/09/18 07:58:27;;;;;;;12.43;6.70;;;23.90;16.00;;;;;;5008705;28;20467;-70
2023/09/18 08:00:57;;;;;;;9.23;6.43;;;23.80;16.30;;;;;;5003542;28;20962;-69
2023/09/18 08:03:24;;;;;;;11.67;7.20;;;23.70;16.70;;;;;;4998912;28;20515;-69
2023/09/18 08:05:52;;;;;;;12.97;7.07;;;23.70;17.00;;;;;;5002503;28;20589;-67
2023/09/18 08:08:21;;;;;;;12.00;9.13;;;23.70;17.30;;;;;;5007508;28;20968;-68
2023/09/18 08:10:47;;;;;;;11.30;7.20;;;23.70;17.10;;;;;;5003228;28;20502;-70
2023/09/18 08:13:14;;;;;;;8.70;6.87;;;23.70;17.40;;;;;;5003442;28;21145;-67
2023/09/18 08:15:41;;;;;;;11.33;6.60;;;23.60;17.30;;;;;;5008180;28;20460;-67
2023/09/18 08:18:10;;;;;;;7.33;5.50;;;23.60;17.50;;;;;;5009402;28;20904;-69
2023/09/18 08:20:37;;;;;;;8.97;5.80;;;23.60;17.60;;;;;;5001901;28;20502;-68
2023/09/18 08:23:05;;;;;;;9.17;5.87;;;23.60;17.80;;;;;;5008271;28;20526;-68
2023/09/18 08:25:31;;;;;;;11.67;5.43;;;23.70;17.70;;;;;;5004893;28;21027;-68
2023/09/18 08:27:58;;;;;;;8.43;5.80;;;23.90;17.70;;;;;;5004384;28;20486;-67
2023/09/18 08:30:25;;;;;;;8.57;5.60;;;24.00;17.60;;;;;;5004414;28;20976;-67
2023/09/18 08:32:52;;;;;;;13.37;6.43;;;24.10;17.40;;;;;;5007795;28;20459;-68
2023/09/18 08:35:20;;;;;;;10.03;5.43;;;24.20;16.90;;;;;;5003018;28;20487;-67
2023/09/18 08:37:47;;;;;;;18.47;5.30;;;24.40;16.50;;;;;;4999928;28;20472;-68
2023/09/18 08:40:14;;;;;;;10.00;5.20;;;24.60;16.10;;;;;;5003120;28;20464;-68
2023/09/18 08:42:45;;;;;;;11.90;5.20;;;25.00;15.30;;;;;;5000856;28;20477;-68
2023/09/18 08:45:16;;;;;;;8.40;4.30;;;25.30;13.60;;;;;;5003976;28;20495;-68
2023/09/18 08:47:43;;;;;;;7.53;4.00;;;25.50;12.60;;;;;;5006939;28;20463;-68
2023/09/18 08:50:10;;;;;;;8.80;4.80;;;25.80;12.30;;;;;;5009617;28;20535;-68
2023/09/18 08:52:39;;;;;;;9.27;4.50;;;26.60;11.00;;;;;;5006487;28;20471;-68
2023/09/18 08:55:08;;;;;;;9.93;3.67;;;27.40;8.50;;;;;;5008116;28;21089;-68
2023/09/18 08:57:37;;;;;;;11.13;4.20;;;27.70;8.00;;;;;;5007124;28;21029;-68
2023/09/18 09:00:07;;;;;;;14.30;4.43;;;27.90;6.10;;;;;;5008830;28;20459;-68
2023/09/18 09:02:34;;;;;;;15.10;4.77;;;27.80;5.20;;;;;;5008538;28;20530;-68
2023/09/18 09:05:01;;;;;;;14.17;4.10;;;27.80;5.50;;;;;;5005585;28;20490;-68
2023/09/18 09:07:31;;;;;;;10.13;3.60;;;27.70;5.80;;;;;;5009767;28;20496;-69
2023/09/18 09:09:59;;;;;;;12.80;3.87;;;28.00;5.70;;;;;;5008274;28;20468;-68
2023/09/18 09:12:48;;;;;;;10.00;3.87;;;28.30;4.50;;;;;;5013364;28;20513;-69
2023/09/18 09:15:15;;;;;;;9.23;3.73;;;28.20;4.30;;;;;;5004615;28;20888;-69
2023/09/18 09:17:44;;;;;;;13.10;3.70;;;27.90;4.40;;;;;;5010131;28;20471;-69
2023/09/18 09:20:11;;;;;;;10.33;3.70;;;27.60;5.40;;;;;;5009376;28;20480;-69
2023/09/18 09:22:40;;;;;;;11.90;3.70;;;27.40;6.10;;;;;;5005331;28;20932;-69
2023/09/18 09:25:23;;;;;;;10.57;3.97;;;27.20;6.40;;;;;;5005830;28;20491;-69
2023/09/18 09:27:49;;;;;;;11.93;4.00;;;26.90;7.40;;;;;;5008046;28;20467;-68
2023/09/18 09:30:20;;;;;;;14.13;3.30;;;26.70;7.20;;;;;;5005484;28;20468;-69
2023/09/18 09:32:50;;;;;;;13.17;3.63;;;26.40;8.00;;;;;;5008432;28;20953;-69
2023/09/18 09:35:26;;;;;;;9.50;3.37;;;26.20;8.30;;;;;;5001386;28;20522;-69
2023/09/18 09:37:55;;;;;;;12.77;3.30;;;25.90;8.30;;;;;;5006773;28;20479;-69
2023/09/18 09:40:24;;;;;;;7.27;2.67;;;25.70;8.60;;;;;;5008767;28;20456;-69
2023/09/18 09:42:53;;;;;;;11.50;3.83;;;25.50;9.10;;;;;;5008230;28;20467;-69
2023/09/18 09:45:20;;;;;;;8.73;3.33;;;25.40;9.60;;;;;;5007651;28;20491;-69
2023/09/18 09:47:47;;;;;;;11.87;3.10;;;25.20;10.20;;;;;;5006743;28;20491;-69
2023/09/18 09:50:18;;;;;;;7.60;2.47;;;25.00;10.70;;;;;;5008658;28;20459;-69
2023/09/18 09:52:48;;;;;;;7.33;2.80;;;24.90;10.80;;;;;;5005622;28;20547;-69
2023/09/18 09:55:38;;;;;;;9.90;2.70;;;24.80;10.80;;;;;;4997794;28;20477;-68
2023/09/18 09:58:06;;;;;;;7.10;2.60;;;24.70;10.80;;;;;;5007010;28;20488;-68
2023/09/18 10:00:40;;;;;;;10.80;2.10;;;24.50;10.60;;;;;;5008681;28;20968;-68
2023/09/18 10:03:08;;;;;;;11.50;3.53;;;24.40;11.10;;;;;;4999550;28;20491;-68
2023/09/18 10:05:37;;;;;;;8.07;2.33;;;24.20;11.30;;;;;;5006225;28;20466;-68
2023/09/18 10:08:08;;;;;;;11.27;2.80;;;24.00;11.30;;;;;;5007786;28;20840;-68
2023/09/18 10:10:38;;;;;;;9.50;2.90;;;23.80;11.80;;;;;;4998162;28;20817;-68
2023/09/18 10:13:10;;;;;;;7.40;2.50;;;23.70;12.30;;;;;;5002266;28;20978;-68
2023/09/18 10:15:39;;;;;;;8.70;2.73;;;23.60;12.90;;;;;;5008255;28;20899;-69
2023/09/18 10:18:11;;;;;;;9.27;2.50;;;23.50;14.10;;;;;;5006288;28;20950;-68
2023/09/18 10:20:42;;;;;;;6.50;2.60;;;23.30;14.50;;;;;;5004958;28;20969;-69
2023/09/18 10:23:26;;;;;;;6.13;2.73;;;23.20;14.60;;;;;;5002414;28;20828;-68
2023/09/18 10:26:03;;;;;;;9.50;2.27;;;23.10;15.40;;;;;;5007958;28;20835;-68
2023/09/18 10:28:30;;;;;;;5.27;1.57;;;23.00;15.10;;;;;;5008247;28;20509;-68
2023/09/18 10:30:58;;;;;;;9.50;2.63;;;22.90;15.30;;;;;;5006801;28;20464;-68
2023/09/18 10:33:26;;;;;;;10.70;2.47;;;22.70;16.00;;;;;;5003507;28;20519;-68
2023/09/18 10:35:55;;;;;;;9.23;2.20;;;22.60;16.60;;;;;;4999356;28;20967;-68
2023/09/18 10:38:22;;;;;;;8.13;2.10;;;22.50;16.90;;;;;;5007816;28;20488;-68
2023/09/18 10:40:50;;;;;;;8.87;2.07;;;22.40;17.70;;;;;;5002842;28;20460;-68
2023/09/18 10:43:19;;;;;;;7.37;2.20;;;22.30;18.30;;;;;;5006725;28;20502;-68
2023/09/18 10:45:46;;;;;;;10.10;2.57;;;22.20;18.50;;;;;;5020607;23;20520;-67
2023/09/18 10:48:14;;;;;;;9.83;2.30;;;22.10;18.80;;;;;;4999899;28;20476;-67
2023/09/18 10:50:43;;;;;;;11.23;2.50;;;22.10;19.20;;;;;;5005724;28;20460;-68
2023/09/18 10:53:11;;;;;;;6.13;2.03;;;22.00;19.10;;;;;;5012211;28;20462;-68
2023/09/18 10:55:38;;;;;;;9.30;1.87;;;22.00;19.60;;;;;;5009819;28;20820;-68
2023/09/18 10:58:05;;;;;;;5.60;1.50;;;22.00;19.90;;;;;;5008627;28;20554;-68
2023/09/18 11:00:36;;;;;;;5.47;2.17;;;21.90;19.60;;;;;;5008036;28;20468;-68
2023/09/18 11:03:17;;;;;;;8.73;2.23;;;21.90;20.00;;;;;;5004140;28;20482;-70
2023/09/18 11:05:45;;;;;;;8.50;2.20;;;21.80;20.30;;;;;;4999275;28;20478;-70
2023/09/18 11:08:29;;;;;;;6.90;2.10;;;21.70;20.40;;;;;;4996658;28;20493;-70
2023/09/18 11:10:58;;;;;;;6.63;2.10;;;21.60;20.90;;;;;;5001182;28;20948;-71
2023/09/18 11:13:34;;;;;;;5.97;1.60;;;21.60;21.40;;;;;;5003595;28;20519;-66
2023/09/18 11:16:13;;;;;;;4.97;1.60;;;21.50;21.50;;;;;;5007864;28;21235;-67
2023/09/18 11:18:40;;;;;;;5.60;1.40;;;21.40;21.80;;;;;;5008156;28;20459;-66
2023/09/18 11:21:11;;;;;;;6.10;1.93;;;21.30;22.00;;;;;;5014112;28;20478;-67
2023/09/18 11:23:42;;;;;;;6.83;2.17;;;21.30;22.10;;;;;;5009614;28;21102;-67
2023/09/18 11:26:09;;;;;;;4.77;1.50;;;21.20;22.20;;;;;;5008670;28;20479;-67
2023/09/18 11:28:38;;;;;;;6.53;1.70;;;21.10;22.40;;;;;;5011576;28;20463;-67
2023/09/18 11:31:07;;;;;;;4.43;1.50;;;21.10;22.60;;;;;;5004895;28;20898;-67
2023/09/18 11:33:35;;;;;;;6.60;2.20;;;21.00;23.10;;;;;;5006813;28;21076;-67
2023/09/18 11:36:07;;;;;;;4.70;1.80;;;21.00;23.40;;;;;;5010056;28;20468;-67
2023/09/18 11:38:36;;;;;;;6.90;1.80;;;20.90;23.90;;;;;;5005345;28;20476;-67
2023/09/18 11:41:21;;;;;;;7.13;2.23;;;20.90;24.20;;;;;;5008714;28;20479;-68
2023/09/18 11:43:47;;;;;;;6.53;1.90;;;20.90;24.90;;;;;;5011771;28;21120;-68
2023/09/18 11:46:19;;;;;;;6.77;2.27;;;20.80;25.10;;;;;;5007194;28;20471;-67
2023/09/18 11:48:49;;;;;;;8.23;2.43;;;20.80;25.60;;;;;;5007769;28;20471;-68
2023/09/18 11:51:23;;;;;;;7.87;2.97;;;20.80;25.70;;;;;;5008118;28;20464;-67
2023/09/18 11:53:53;;;;;;;5.43;1.27;;;20.90;26.10;;;;;;5006798;28;20479;-67
2023/09/18 11:56:21;;;;;;;6.03;2.27;;;20.90;25.60;;;;;;5007672;28;20475;-67
2023/09/18 11:58:49;;;;;;;7.40;2.00;;;20.90;26.00;;;;;;5005631;28;20471;-67
2023/09/18 12:01:19;;;;;;;7.00;1.67;;;20.90;26.00;;;;;;5007422;28;20478;-67
2023/09/18 12:03:46;;;;;;;6.07;1.57;;;20.90;26.70;;;;;;5002287;28;20487;-67
2023/09/18 12:06:14;;;;;;;4.83;1.80;;;20.90;25.60;;;;;;5008961;28;20471;-66
2023/09/18 12:08:41;;;;;;;5.00;1.17;;;21.00;25.40;;;;;;5004335;28;20992;-67
2023/09/18 12:11:09;;;;;;;6.20;1.60;;;21.10;24.80;;;;;;5005261;28;20481;-66
2023/09/18 12:13:36;;;;;;;7.97;1.80;;;21.10;24.30;;;;;;5006275;28;20491;-67
2023/09/18 12:16:05;;;;;;;4.40;1.13;;;21.10;24.60;;;;;;5001593;28;20479;-67
2023/09/18 12:18:34;;;;;;;7.23;1.20;;;21.10;24.10;;;;;;5011425;28;20546;-68
2023/09/18 12:21:04;;;;;;;5.40;1.33;;;21.10;24.20;;;;;;5007243;28;20475;-67
2023/09/18 12:23:38;;;;;;;4.60;1.10;;;21.10;24.00;;;;;;5006291;28;20487;-67
2023/09/18 12:26:06;;;;;;;5.40;1.20;;;21.10;24.00;;;;;;5000591;28;20517;-67
2023/09/18 12:28:34;;;;;;;5.90;1.00;;;21.10;23.90;;;;;;5004877;28;20996;-67
2023/09/18 12:31:04;;;;;;;5.00;1.60;;;21.10;23.60;;;;;;5005788;28;20475;-67
2023/09/18 12:33:37;;;;;;;5.07;1.43;;;21.10;23.90;;;;;;5009993;28;20486;-67
2023/09/18 12:36:04;;;;;;;4.63;1.23;;;21.00;24.20;;;;;;5009174;28;20471;-67
2023/09/18 12:38:31;;;;;;;4.33;1.00;;;20.90;24.20;;;;;;5006674;28;20487;-67
2023/09/18 12:41:05;;;;;;;4.50;1.50;;;20.80;24.30;;;;;;5004915;28;20459;-67
2023/09/18 12:43:34;;;;;;;4.80;1.60;;;20.70;24.80;;;;;;5007225;28;20564;-67
2023/09/18 12:46:03;;;;;;;5.07;1.70;;;20.60;25.50;;;;;;5005520;28;20539;-67